sensor_id;sensor_type;location;lat;lon;timestamp;P1;durP1;ratioP1;P2;durP2;ratioP2
2576;SDS011;1298;51.252;6.802;2022-08-01T00:01:57;32.05;;;28.95;;
2576;SDS011;1298;51.252;6.802;2022-08-01T00:04:43;32.08;;;29.08;;
2576;SDS011;1298;51.252;6.802;2022-08-01T00:07:29;33.22;;;29.90;;
2576;SDS011;1298;51.252;6.802;2022-08-01T00:10:15;36.10;;;31.75;;
2576;SDS011;1298;51.252;6.802;2022-08-01T00:13:01;34.72;;;30.92;;
2576;SDS011;1298;51.252;6.802;2022-08-01T00:15:48;34.10;;;30.50;;
2576;SDS011;1298;51.252;6.802;2022-08-01T00:18:34;34.25;;;30.65;;
2576;SDS011;1298;51.252;6.802;2022-08-01T00:21:20;33.53;;;30.13;;
2576;SDS011;1298;51.252;6.802;2022-08-01T00:24:06;32.97;;;29.67;;
2576;SDS011;1298;51.252;6.802;2022-08-01T00:26:51;32.30;;;29.10;;
2576;SDS011;1298;51.252;6.802;2022-08-01T00:29:37;33.08;;;29.92;;
2576;SDS011;1298;51.252;6.802;2022-08-01T00:32:24;34.95;;;31.10;;
2576;SDS011;1298;51.252;6.802;2022-08-01T00:35:10;35.80;;;31.38;;
2576;SDS011;1298;51.252;6.802;2022-08-01T00:37:56;35.47;;;31.25;;
2576;SDS011;1298;51.252;6.802;2022-08-01T00:40:42;34.88;;;31.08;;
2576;SDS011;1298;51.252;6.802;2022-08-01T00:43:27;34.40;;;30.70;;
2576;SDS011;1298;51.252;6.802;2022-08-01T00:46:13;34.60;;;31.00;;
2576;SDS011;1298;51.252;6.802;2022-08-01T00:49:00;33.60;;;30.20;;
2576;SDS011;1298;51.252;6.802;2022-08-01T00:51:46;32.58;;;29.38;;
2576;SDS011;1298;51.252;6.802;2022-08-01T00:54:32;31.98;;;28.95;;
2576;SDS011;1298;51.252;6.802;2022-08-01T00:57:17;33.20;;;29.83;;
2576;SDS011;1298;51.252;6.802;2022-08-01T01:00:03;32.85;;;29.55;;
2576;SDS011;1298;51.252;6.802;2022-08-01T01:02:49;33.42;;;29.92;;
2576;SDS011;1298;51.252;6.802;2022-08-01T01:05:39;34.63;;;30.92;;
2576;SDS011;1298;51.252;6.802;2022-08-01T01:08:32;35.33;;;31.63;;
2576;SDS011;1298;51.252;6.802;2022-08-01T01:11:25;33.80;;;30.17;;
2576;SDS011;1298;51.252;6.802;2022-08-01T01:14:16;34.17;;;30.58;;
2576;SDS011;1298;51.252;6.802;2022-08-01T01:17:07;33.80;;;30.30;;
2576;SDS011;1298;51.252;6.802;2022-08-01T01:19:54;33.35;;;29.85;;
2576;SDS011;1298;51.252;6.802;2022-08-01T01:22:47;33.08;;;29.67;;
2576;SDS011;1298;51.252;6.802;2022-08-01T01:25:46;33.83;;;30.35;;
2576;SDS011;1298;51.252;6.802;2022-08-01T01:28:40;33.20;;;29.85;;
2576;SDS011;1298;51.252;6.802;2022-08-01T01:31:43;33.47;;;30.08;;
2576;SDS011;1298;51.252;6.802;2022-08-01T01:34:38;33.20;;;29.95;;
2576;SDS011;1298;51.252;6.802;2022-08-01T01:37:27;28.90;;;26.40;;
2576;SDS011;1298;51.252;6.802;2022-08-01T01:40:17;27.90;;;25.60;;
2576;SDS011;1298;51.252;6.802;2022-08-01T01:43:04;28.05;;;25.85;;
2576;SDS011;1298;51.252;6.802;2022-08-01T01:45:55;31.33;;;28.33;;
2576;SDS011;1298;51.252;6.802;2022-08-01T01:48:41;33.65;;;30.35;;
2576;SDS011;1298;51.252;6.802;2022-08-01T01:51:29;32.25;;;29.05;;
2576;SDS011;1298;51.252;6.802;2022-08-01T01:54:16;32.85;;;29.65;;
2576;SDS011;1298;51.252;6.802;2022-08-01T01:57:03;32.55;;;29.35;;
2576;SDS011;1298;51.252;6.802;2022-08-01T01:59:50;32.50;;;29.30;;
2576;SDS011;1298;51.252;6.802;2022-08-01T02:02:38;32.65;;;29.45;;
2576;SDS011;1298;51.252;6.802;2022-08-01T02:05:25;32.50;;;29.33;;
2576;SDS011;1298;51.252;6.802;2022-08-01T02:08:11;32.30;;;29.20;;
2576;SDS011;1298;51.252;6.802;2022-08-01T02:11:00;32.33;;;29.23;;
2576;SDS011;1298;51.252;6.802;2022-08-01T02:14:03;31.80;;;28.80;;
2576;SDS011;1298;51.252;6.802;2022-08-01T02:16:51;32.03;;;29.02;;
2576;SDS011;1298;51.252;6.802;2022-08-01T02:19:40;31.05;;;28.15;;
2576;SDS011;1298;51.252;6.802;2022-08-01T02:22:27;33.25;;;30.33;;
2576;SDS011;1298;51.252;6.802;2022-08-01T02:25:18;29.73;;;27.13;;
2576;SDS011;1298;51.252;6.802;2022-08-01T02:28:07;29.63;;;27.02;;
2576;SDS011;1298;51.252;6.802;2022-08-01T02:30:59;29.58;;;27.08;;
2576;SDS011;1298;51.252;6.802;2022-08-01T02:33:49;28.58;;;26.17;;
2576;SDS011;1298;51.252;6.802;2022-08-01T02:36:40;28.60;;;26.20;;
2576;SDS011;1298;51.252;6.802;2022-08-01T02:39:29;28.90;;;26.50;;
2576;SDS011;1298;51.252;6.802;2022-08-01T02:42:16;28.75;;;26.45;;
2576;SDS011;1298;51.252;6.802;2022-08-01T02:45:03;27.15;;;25.05;;
2576;SDS011;1298;51.252;6.802;2022-08-01T02:47:52;27.35;;;25.10;;
2576;SDS011;1298;51.252;6.802;2022-08-01T02:50:42;29.45;;;27.05;;
2576;SDS011;1298;51.252;6.802;2022-08-01T02:53:31;28.80;;;26.40;;
2576;SDS011;1298;51.252;6.802;2022-08-01T02:56:20;28.50;;;26.20;;
2576;SDS011;1298;51.252;6.802;2022-08-01T02:59:07;28.20;;;25.90;;
2576;SDS011;1298;51.252;6.802;2022-08-01T03:01:57;29.65;;;27.25;;
2576;SDS011;1298;51.252;6.802;2022-08-01T03:04:44;27.45;;;25.23;;
2576;SDS011;1298;51.252;6.802;2022-08-01T03:07:30;29.17;;;26.88;;
2576;SDS011;1298;51.252;6.802;2022-08-01T03:10:18;27.60;;;25.40;;
2576;SDS011;1298;51.252;6.802;2022-08-01T03:13:04;27.67;;;25.48;;
2576;SDS011;1298;51.252;6.802;2022-08-01T03:15:53;27.95;;;25.75;;
2576;SDS011;1298;51.252;6.802;2022-08-01T03:18:40;27.02;;;24.90;;
2576;SDS011;1298;51.252;6.802;2022-08-01T03:21:28;27.38;;;25.27;;
2576;SDS011;1298;51.252;6.802;2022-08-01T03:24:16;27.42;;;25.33;;
2576;SDS011;1298;51.252;6.802;2022-08-01T03:27:04;28.75;;;26.55;;
2576;SDS011;1298;51.252;6.802;2022-08-01T03:29:52;26.60;;;24.50;;
2576;SDS011;1298;51.252;6.802;2022-08-01T03:32:40;27.65;;;25.55;;
2576;SDS011;1298;51.252;6.802;2022-08-01T03:35:26;25.10;;;23.30;;
2576;SDS011;1298;51.252;6.802;2022-08-01T03:38:17;25.98;;;24.17;;
2576;SDS011;1298;51.252;6.802;2022-08-01T03:41:06;25.52;;;23.73;;
2576;SDS011;1298;51.252;6.802;2022-08-01T03:43:57;25.27;;;23.48;;
2576;SDS011;1298;51.252;6.802;2022-08-01T03:46:46;24.05;;;22.35;;
2576;SDS011;1298;51.252;6.802;2022-08-01T03:49:33;23.85;;;22.25;;
2576;SDS011;1298;51.252;6.802;2022-08-01T03:52:22;23.30;;;21.70;;
2576;SDS011;1298;51.252;6.802;2022-08-01T03:55:09;22.80;;;21.30;;
2576;SDS011;1298;51.252;6.802;2022-08-01T03:57:55;22.85;;;21.35;;
2576;SDS011;1298;51.252;6.802;2022-08-01T04:00:43;22.80;;;21.35;;
2576;SDS011;1298;51.252;6.802;2022-08-01T04:03:30;21.15;;;19.85;;
2576;SDS011;1298;51.252;6.802;2022-08-01T04:06:16;21.20;;;19.90;;
2576;SDS011;1298;51.252;6.802;2022-08-01T04:09:01;21.00;;;19.70;;
2576;SDS011;1298;51.252;6.802;2022-08-01T04:11:47;20.60;;;19.30;;
2576;SDS011;1298;51.252;6.802;2022-08-01T04:14:33;20.35;;;19.15;;
2576;SDS011;1298;51.252;6.802;2022-08-01T04:17:20;20.40;;;19.20;;
2576;SDS011;1298;51.252;6.802;2022-08-01T04:20:06;19.90;;;18.70;;
2576;SDS011;1298;51.252;6.802;2022-08-01T04:22:51;19.27;;;18.17;;
2576;SDS011;1298;51.252;6.802;2022-08-01T04:25:37;19.15;;;18.05;;
2576;SDS011;1298;51.252;6.802;2022-08-01T04:28:25;20.50;;;19.40;;
2576;SDS011;1298;51.252;6.802;2022-08-01T04:31:12;18.95;;;17.95;;
2576;SDS011;1298;51.252;6.802;2022-08-01T04:34:02;19.40;;;18.30;;
2576;SDS011;1298;51.252;6.802;2022-08-01T04:36:50;19.02;;;18.02;;
2576;SDS011;1298;51.252;6.802;2022-08-01T04:39:39;19.05;;;18.05;;
2576;SDS011;1298;51.252;6.802;2022-08-01T04:42:26;20.23;;;19.13;;
2576;SDS011;1298;51.252;6.802;2022-08-01T04:45:12;18.95;;;17.95;;
2576;SDS011;1298;51.252;6.802;2022-08-01T04:47:57;19.55;;;18.55;;
2576;SDS011;1298;51.252;6.802;2022-08-01T04:50:45;19.27;;;18.27;;
2576;SDS011;1298;51.252;6.802;2022-08-01T04:53:30;18.92;;;17.92;;
2576;SDS011;1298;51.252;6.802;2022-08-01T04:56:16;19.90;;;18.80;;
2576;SDS011;1298;51.252;6.802;2022-08-01T04:59:02;20.55;;;19.45;;
2576;SDS011;1298;51.252;6.802;2022-08-01T05:02:05;19.00;;;18.00;;
2576;SDS011;1298;51.252;6.802;2022-08-01T05:04:50;19.25;;;18.25;;
2576;SDS011;1298;51.252;6.802;2022-08-01T05:07:37;19.15;;;18.15;;
2576;SDS011;1298;51.252;6.802;2022-08-01T05:10:23;18.98;;;17.98;;
2576;SDS011;1298;51.252;6.802;2022-08-01T05:13:09;19.10;;;18.00;;
2576;SDS011;1298;51.252;6.802;2022-08-01T05:15:55;19.05;;;17.95;;
2576;SDS011;1298;51.252;6.802;2022-08-01T05:18:40;20.30;;;19.20;;
2576;SDS011;1298;51.252;6.802;2022-08-01T05:21:25;22.00;;;20.60;;
2576;SDS011;1298;51.252;6.802;2022-08-01T05:24:12;22.08;;;20.67;;
2576;SDS011;1298;51.252;6.802;2022-08-01T05:26:58;22.63;;;21.13;;
2576;SDS011;1298;51.252;6.802;2022-08-01T05:29:44;22.75;;;21.25;;
2576;SDS011;1298;51.252;6.802;2022-08-01T05:32:29;24.95;;;23.35;;
2576;SDS011;1298;51.252;6.802;2022-08-01T05:35:15;22.70;;;21.20;;
2576;SDS011;1298;51.252;6.802;2022-08-01T05:38:00;21.92;;;20.52;;
2576;SDS011;1298;51.252;6.802;2022-08-01T05:40:47;22.88;;;21.38;;
2576;SDS011;1298;51.252;6.802;2022-08-01T05:43:33;22.35;;;20.95;;
2576;SDS011;1298;51.252;6.802;2022-08-01T05:46:18;21.95;;;20.55;;
2576;SDS011;1298;51.252;6.802;2022-08-01T05:49:04;21.45;;;20.15;;
2576;SDS011;1298;51.252;6.802;2022-08-01T05:51:49;21.33;;;20.02;;
2576;SDS011;1298;51.252;6.802;2022-08-01T05:54:36;20.80;;;19.50;;
2576;SDS011;1298;51.252;6.802;2022-08-01T05:57:23;23.35;;;21.95;;
2576;SDS011;1298;51.252;6.802;2022-08-01T06:00:08;20.00;;;18.80;;
2576;SDS011;1298;51.252;6.802;2022-08-01T06:02:56;21.70;;;20.40;;
2576;SDS011;1298;51.252;6.802;2022-08-01T06:05:42;22.08;;;20.77;;
2576;SDS011;1298;51.252;6.802;2022-08-01T06:08:27;20.52;;;19.33;;
2576;SDS011;1298;51.252;6.802;2022-08-01T06:11:13;19.65;;;18.55;;
2576;SDS011;1298;51.252;6.802;2022-08-01T06:14:00;20.17;;;19.05;;
2576;SDS011;1298;51.252;6.802;2022-08-01T06:16:46;19.98;;;18.77;;
2576;SDS011;1298;51.252;6.802;2022-08-01T06:19:31;20.08;;;18.98;;
2576;SDS011;1298;51.252;6.802;2022-08-01T06:22:17;19.58;;;18.48;;
2576;SDS011;1298;51.252;6.802;2022-08-01T06:25:03;19.95;;;18.85;;
2576;SDS011;1298;51.252;6.802;2022-08-01T06:27:49;19.88;;;18.77;;
2576;SDS011;1298;51.252;6.802;2022-08-01T06:30:36;20.27;;;19.15;;
2576;SDS011;1298;51.252;6.802;2022-08-01T06:33:21;19.63;;;18.52;;
2576;SDS011;1298;51.252;6.802;2022-08-01T06:36:07;19.48;;;18.38;;
2576;SDS011;1298;51.252;6.802;2022-08-01T06:38:52;20.55;;;19.45;;
2576;SDS011;1298;51.252;6.802;2022-08-01T06:41:38;19.27;;;18.27;;
2576;SDS011;1298;51.252;6.802;2022-08-01T06:44:25;18.90;;;17.90;;
2576;SDS011;1298;51.252;6.802;2022-08-01T06:47:12;19.30;;;18.30;;
2576;SDS011;1298;51.252;6.802;2022-08-01T06:49:57;19.73;;;18.67;;
2576;SDS011;1298;51.252;6.802;2022-08-01T06:52:43;20.17;;;19.10;;
2576;SDS011;1298;51.252;6.802;2022-08-01T06:55:28;18.85;;;17.85;;
2576;SDS011;1298;51.252;6.802;2022-08-01T06:58:14;20.00;;;18.90;;
2576;SDS011;1298;51.252;6.802;2022-08-01T07:01:00;19.05;;;18.05;;
2576;SDS011;1298;51.252;6.802;2022-08-01T07:03:47;20.15;;;19.05;;
2576;SDS011;1298;51.252;6.802;2022-08-01T07:06:32;19.73;;;18.63;;
2576;SDS011;1298;51.252;6.802;2022-08-01T07:09:18;19.13;;;18.13;;
2576;SDS011;1298;51.252;6.802;2022-08-01T07:12:04;19.88;;;18.77;;
2576;SDS011;1298;51.252;6.802;2022-08-01T07:14:49;19.85;;;18.75;;
2576;SDS011;1298;51.252;6.802;2022-08-01T07:17:36;19.73;;;18.63;;
2576;SDS011;1298;51.252;6.802;2022-08-01T07:20:25;20.88;;;19.70;;
2576;SDS011;1298;51.252;6.802;2022-08-01T07:23:10;19.52;;;18.42;;
2576;SDS011;1298;51.252;6.802;2022-08-01T07:25:56;19.20;;;18.10;;
2576;SDS011;1298;51.252;6.802;2022-08-01T07:28:41;19.50;;;18.40;;
2576;SDS011;1298;51.252;6.802;2022-08-01T07:31:27;19.40;;;18.30;;
2576;SDS011;1298;51.252;6.802;2022-08-01T07:34:12;19.15;;;18.15;;
2576;SDS011;1298;51.252;6.802;2022-08-01T07:36:59;18.50;;;17.50;;
2576;SDS011;1298;51.252;6.802;2022-08-01T07:39:44;19.00;;;18.00;;
2576;SDS011;1298;51.252;6.802;2022-08-01T07:42:30;17.23;;;16.42;;
2576;SDS011;1298;51.252;6.802;2022-08-01T07:45:16;18.00;;;17.20;;
2576;SDS011;1298;51.252;6.802;2022-08-01T07:48:02;17.77;;;16.98;;
2576;SDS011;1298;51.252;6.802;2022-08-01T07:50:48;17.05;;;16.35;;
2576;SDS011;1298;51.252;6.802;2022-08-01T07:53:35;17.45;;;16.65;;
2576;SDS011;1298;51.252;6.802;2022-08-01T07:56:20;17.70;;;16.90;;
2576;SDS011;1298;51.252;6.802;2022-08-01T07:59:07;16.75;;;16.05;;
2576;SDS011;1298;51.252;6.802;2022-08-01T08:01:52;16.42;;;15.73;;
2576;SDS011;1298;51.252;6.802;2022-08-01T08:04:38;17.13;;;16.42;;
2576;SDS011;1298;51.252;6.802;2022-08-01T08:07:24;17.77;;;16.98;;
2576;SDS011;1298;51.252;6.802;2022-08-01T08:10:10;17.02;;;16.33;;
2576;SDS011;1298;51.252;6.802;2022-08-01T08:12:56;15.70;;;15.10;;
2576;SDS011;1298;51.252;6.802;2022-08-01T08:15:42;26.33;;;23.92;;
2576;SDS011;1298;51.252;6.802;2022-08-01T08:18:27;40.67;;;32.58;;
2576;SDS011;1298;51.252;6.802;2022-08-01T08:21:13;35.60;;;30.60;;
2576;SDS011;1298;51.252;6.802;2022-08-01T08:23:58;34.50;;;30.90;;
2576;SDS011;1298;51.252;6.802;2022-08-01T08:27:03;33.20;;;29.80;;
2576;SDS011;1298;51.252;6.802;2022-08-01T08:29:48;32.15;;;28.95;;
2576;SDS011;1298;51.252;6.802;2022-08-01T08:32:34;30.13;;;27.42;;
2576;SDS011;1298;51.252;6.802;2022-08-01T08:35:20;29.38;;;26.75;;
2576;SDS011;1298;51.252;6.802;2022-08-01T08:38:06;31.77;;;28.77;;
2576;SDS011;1298;51.252;6.802;2022-08-01T08:40:52;31.90;;;28.90;;
2576;SDS011;1298;51.252;6.802;2022-08-01T08:43:39;31.95;;;28.98;;
2576;SDS011;1298;51.252;6.802;2022-08-01T08:46:25;30.40;;;27.60;;
2576;SDS011;1298;51.252;6.802;2022-08-01T08:49:12;30.02;;;27.33;;
2576;SDS011;1298;51.252;6.802;2022-08-01T08:52:01;29.52;;;27.02;;
2576;SDS011;1298;51.252;6.802;2022-08-01T08:54:47;28.90;;;26.50;;
2576;SDS011;1298;51.252;6.802;2022-08-01T08:57:34;31.08;;;28.58;;
2576;SDS011;1298;51.252;6.802;2022-08-01T09:00:21;29.45;;;26.95;;
2576;SDS011;1298;51.252;6.802;2022-08-01T09:03:07;31.38;;;28.48;;
2576;SDS011;1298;51.252;6.802;2022-08-01T09:05:53;30.65;;;27.85;;
2576;SDS011;1298;51.252;6.802;2022-08-01T09:08:38;30.17;;;27.55;;
2576;SDS011;1298;51.252;6.802;2022-08-01T09:11:24;31.08;;;28.40;;
2576;SDS011;1298;51.252;6.802;2022-08-01T09:14:10;29.23;;;26.73;;
2576;SDS011;1298;51.252;6.802;2022-08-01T09:17:03;28.02;;;25.80;;
2576;SDS011;1298;51.252;6.802;2022-08-01T09:19:51;32.60;;;29.60;;
2576;SDS011;1298;51.252;6.802;2022-08-01T09:22:38;33.97;;;30.60;;
2576;SDS011;1298;51.252;6.802;2022-08-01T09:25:24;31.85;;;28.85;;
2576;SDS011;1298;51.252;6.802;2022-08-01T09:28:16;33.60;;;30.23;;
2576;SDS011;1298;51.252;6.802;2022-08-01T09:31:05;36.08;;;32.17;;
2576;SDS011;1298;51.252;6.802;2022-08-01T09:33:54;33.53;;;29.95;;
2576;SDS011;1298;51.252;6.802;2022-08-01T09:36:45;33.75;;;30.25;;
2576;SDS011;1298;51.252;6.802;2022-08-01T09:39:35;33.10;;;29.70;;
2576;SDS011;1298;51.252;6.802;2022-08-01T09:42:25;33.92;;;30.52;;
2576;SDS011;1298;51.252;6.802;2022-08-01T09:48:16;32.38;;;29.20;;
2576;SDS011;1298;51.252;6.802;2022-08-01T09:51:03;31.05;;;28.15;;
2576;SDS011;1298;51.252;6.802;2022-08-01T09:53:49;30.92;;;28.02;;
2576;SDS011;1298;51.252;6.802;2022-08-01T09:56:38;30.90;;;28.00;;
2576;SDS011;1298;51.252;6.802;2022-08-01T09:59:34;30.38;;;27.67;;
2576;SDS011;1298;51.252;6.802;2022-08-01T10:02:28;29.55;;;27.05;;
2576;SDS011;1298;51.252;6.802;2022-08-01T10:05:15;31.85;;;28.70;;
2576;SDS011;1298;51.252;6.802;2022-08-01T10:08:02;33.35;;;29.75;;
2576;SDS011;1298;51.252;6.802;2022-08-01T10:13:51;33.95;;;30.10;;
2576;SDS011;1298;51.252;6.802;2022-08-01T10:16:37;33.97;;;30.27;;
2576;SDS011;1298;51.252;6.802;2022-08-01T10:19:25;34.05;;;30.35;;
2576;SDS011;1298;51.252;6.802;2022-08-01T10:22:12;34.50;;;30.80;;
2576;SDS011;1298;51.252;6.802;2022-08-01T10:25:02;35.85;;;31.95;;
2576;SDS011;1298;51.252;6.802;2022-08-01T10:27:50;34.85;;;30.98;;
2576;SDS011;1298;51.252;6.802;2022-08-01T10:30:38;35.38;;;31.52;;
2576;SDS011;1298;51.252;6.802;2022-08-01T10:33:26;34.10;;;30.40;;
2576;SDS011;1298;51.252;6.802;2022-08-01T10:36:13;35.55;;;31.65;;
2576;SDS011;1298;51.252;6.802;2022-08-01T10:39:02;35.10;;;31.20;;
2576;SDS011;1298;51.252;6.802;2022-08-01T10:41:49;34.47;;;30.52;;
2576;SDS011;1298;51.252;6.802;2022-08-01T10:44:36;34.88;;;30.85;;
2576;SDS011;1298;51.252;6.802;2022-08-01T10:47:25;35.70;;;31.75;;
2576;SDS011;1298;51.252;6.802;2022-08-01T10:50:24;35.30;;;30.80;;
2576;SDS011;1298;51.252;6.802;2022-08-01T10:53:16;36.22;;;31.75;;
2576;SDS011;1298;51.252;6.802;2022-08-01T10:56:03;35.40;;;31.25;;
2576;SDS011;1298;51.252;6.802;2022-08-01T10:58:51;35.80;;;32.00;;
2576;SDS011;1298;51.252;6.802;2022-08-01T11:01:47;33.90;;;30.30;;
2576;SDS011;1298;51.252;6.802;2022-08-01T11:04:44;34.10;;;30.50;;
2576;SDS011;1298;51.252;6.802;2022-08-01T11:07:42;33.72;;;30.23;;
2576;SDS011;1298;51.252;6.802;2022-08-01T11:10:31;32.92;;;29.42;;
2576;SDS011;1298;51.252;6.802;2022-08-01T11:13:35;33.40;;;29.90;;
2576;SDS011;1298;51.252;6.802;2022-08-01T11:16:53;33.30;;;29.85;;
2576;SDS011;1298;51.252;6.802;2022-08-01T11:26:13;33.15;;;29.75;;
2576;SDS011;1298;51.252;6.802;2022-08-01T11:29:15;32.65;;;29.25;;
2576;SDS011;1298;51.252;6.802;2022-08-01T11:35:10;32.70;;;29.20;;
2576;SDS011;1298;51.252;6.802;2022-08-01T11:37:55;32.92;;;29.42;;
2576;SDS011;1298;51.252;6.802;2022-08-01T11:40:41;33.58;;;29.98;;
2576;SDS011;1298;51.252;6.802;2022-08-01T11:43:26;34.17;;;30.48;;
2576;SDS011;1298;51.252;6.802;2022-08-01T11:46:14;34.20;;;30.50;;
2576;SDS011;1298;51.252;6.802;2022-08-01T11:52:09;34.53;;;30.73;;
2576;SDS011;1298;51.252;6.802;2022-08-01T11:54:57;35.15;;;31.35;;
2576;SDS011;1298;51.252;6.802;2022-08-01T11:57:50;34.10;;;30.40;;
2576;SDS011;1298;51.252;6.802;2022-08-01T12:00:49;34.55;;;30.85;;
2576;SDS011;1298;51.252;6.802;2022-08-01T12:03:37;33.80;;;30.20;;
2576;SDS011;1298;51.252;6.802;2022-08-01T12:06:26;33.67;;;30.08;;
2576;SDS011;1298;51.252;6.802;2022-08-01T12:09:16;35.90;;;32.15;;
2576;SDS011;1298;51.252;6.802;2022-08-01T12:12:05;34.00;;;30.40;;
2576;SDS011;1298;51.252;6.802;2022-08-01T12:14:55;34.03;;;30.42;;
2576;SDS011;1298;51.252;6.802;2022-08-01T12:17:43;35.30;;;31.58;;
2576;SDS011;1298;51.252;6.802;2022-08-01T12:20:32;33.55;;;30.05;;
2576;SDS011;1298;51.252;6.802;2022-08-01T12:23:19;33.67;;;30.17;;
2576;SDS011;1298;51.252;6.802;2022-08-01T12:26:04;32.63;;;29.23;;
2576;SDS011;1298;51.252;6.802;2022-08-01T12:28:50;32.83;;;29.50;;
2576;SDS011;1298;51.252;6.802;2022-08-01T12:31:37;32.90;;;29.60;;
2576;SDS011;1298;51.252;6.802;2022-08-01T12:34:26;31.85;;;28.65;;
2576;SDS011;1298;51.252;6.802;2022-08-01T12:37:19;33.22;;;30.02;;
2576;SDS011;1298;51.252;6.802;2022-08-01T12:40:12;31.40;;;28.40;;
2576;SDS011;1298;51.252;6.802;2022-08-01T12:43:00;32.70;;;29.33;;
2576;SDS011;1298;51.252;6.802;2022-08-01T12:45:48;33.67;;;30.08;;
2576;SDS011;1298;51.252;6.802;2022-08-01T12:48:34;38.90;;;31.80;;
2576;SDS011;1298;51.252;6.802;2022-08-01T12:51:20;36.90;;;31.40;;
2576;SDS011;1298;51.252;6.802;2022-08-01T12:54:08;35.83;;;30.45;;
2576;SDS011;1298;51.252;6.802;2022-08-01T12:56:54;36.72;;;31.63;;
2576;SDS011;1298;51.252;6.802;2022-08-01T12:59:41;36.22;;;31.92;;
2576;SDS011;1298;51.252;6.802;2022-08-01T13:02:31;34.17;;;30.48;;
2576;SDS011;1298;51.252;6.802;2022-08-01T13:05:18;33.38;;;29.88;;
2576;SDS011;1298;51.252;6.802;2022-08-01T13:08:09;33.25;;;29.77;;
2576;SDS011;1298;51.252;6.802;2022-08-01T13:11:01;32.53;;;29.13;;
2576;SDS011;1298;51.252;6.802;2022-08-01T13:13:49;33.00;;;29.60;;
2576;SDS011;1298;51.252;6.802;2022-08-01T13:16:46;31.30;;;28.20;;
2576;SDS011;1298;51.252;6.802;2022-08-01T13:22:36;34.08;;;30.30;;
2576;SDS011;1298;51.252;6.802;2022-08-01T13:25:24;33.97;;;30.27;;
2576;SDS011;1298;51.252;6.802;2022-08-01T13:28:18;34.88;;;31.27;;
2576;SDS011;1298;51.252;6.802;2022-08-01T13:31:04;31.52;;;28.38;;
2576;SDS011;1298;51.252;6.802;2022-08-01T13:33:51;31.15;;;28.15;;
2576;SDS011;1298;51.252;6.802;2022-08-01T13:36:37;30.25;;;27.45;;
2576;SDS011;1298;51.252;6.802;2022-08-01T13:39:23;29.17;;;26.75;;
2576;SDS011;1298;51.252;6.802;2022-08-01T13:42:29;30.10;;;27.27;;
2576;SDS011;1298;51.252;6.802;2022-08-01T13:45:18;33.13;;;29.63;;
2576;SDS011;1298;51.252;6.802;2022-08-01T13:48:04;32.80;;;29.40;;
2576;SDS011;1298;51.252;6.802;2022-08-01T13:50:50;33.50;;;30.00;;
2576;SDS011;1298;51.252;6.802;2022-08-01T13:53:36;34.55;;;30.85;;
2576;SDS011;1298;51.252;6.802;2022-08-01T13:56:22;33.95;;;30.25;;
2576;SDS011;1298;51.252;6.802;2022-08-01T13:59:08;36.85;;;32.85;;
2576;SDS011;1298;51.252;6.802;2022-08-01T14:01:55;34.75;;;30.75;;
2576;SDS011;1298;51.252;6.802;2022-08-01T14:04:40;34.80;;;31.00;;
2576;SDS011;1298;51.252;6.802;2022-08-01T14:07:26;34.38;;;30.65;;
2576;SDS011;1298;51.252;6.802;2022-08-01T14:10:11;34.00;;;30.30;;
2576;SDS011;1298;51.252;6.802;2022-08-01T14:12:57;34.08;;;30.38;;
2576;SDS011;1298;51.252;6.802;2022-08-01T14:15:43;33.75;;;30.05;;
2576;SDS011;1298;51.252;6.802;2022-08-01T14:18:30;34.00;;;30.38;;
2576;SDS011;1298;51.252;6.802;2022-08-01T14:21:16;33.63;;;29.92;;
2576;SDS011;1298;51.252;6.802;2022-08-01T14:24:03;33.15;;;29.65;;
2576;SDS011;1298;51.252;6.802;2022-08-01T14:26:50;34.28;;;30.67;;
2576;SDS011;1298;51.252;6.802;2022-08-01T14:29:36;33.90;;;30.30;;
2576;SDS011;1298;51.252;6.802;2022-08-01T14:32:21;33.22;;;29.73;;
2576;SDS011;1298;51.252;6.802;2022-08-01T14:35:10;32.28;;;28.88;;
2576;SDS011;1298;51.252;6.802;2022-08-01T14:37:55;31.80;;;28.50;;
2576;SDS011;1298;51.252;6.802;2022-08-01T14:40:42;32.72;;;29.42;;
2576;SDS011;1298;51.252;6.802;2022-08-01T14:43:30;31.30;;;28.30;;
2576;SDS011;1298;51.252;6.802;2022-08-01T14:46:16;30.77;;;27.77;;
2576;SDS011;1298;51.252;6.802;2022-08-01T14:49:02;33.72;;;30.52;;
2576;SDS011;1298;51.252;6.802;2022-08-01T14:51:51;31.05;;;28.05;;
2576;SDS011;1298;51.252;6.802;2022-08-01T14:54:38;32.05;;;28.88;;
2576;SDS011;1298;51.252;6.802;2022-08-01T14:57:23;33.78;;;30.58;;
2576;SDS011;1298;51.252;6.802;2022-08-01T15:00:10;32.25;;;29.15;;
2576;SDS011;1298;51.252;6.802;2022-08-01T15:02:57;31.02;;;27.92;;
2576;SDS011;1298;51.252;6.802;2022-08-01T15:05:42;32.60;;;29.40;;
2576;SDS011;1298;51.252;6.802;2022-08-01T15:08:29;32.25;;;29.05;;
2576;SDS011;1298;51.252;6.802;2022-08-01T15:11:15;33.00;;;29.75;;
2576;SDS011;1298;51.252;6.802;2022-08-01T15:14:01;32.30;;;29.10;;
2576;SDS011;1298;51.252;6.802;2022-08-01T15:17:04;31.95;;;28.85;;
2576;SDS011;1298;51.252;6.802;2022-08-01T15:19:51;30.70;;;27.90;;
2576;SDS011;1298;51.252;6.802;2022-08-01T15:22:38;27.33;;;25.08;;
2576;SDS011;1298;51.252;6.802;2022-08-01T15:25:24;32.50;;;29.10;;
2576;SDS011;1298;51.252;6.802;2022-08-01T15:28:14;33.70;;;30.08;;
2576;SDS011;1298;51.252;6.802;2022-08-01T15:30:59;33.55;;;30.20;;
2576;SDS011;1298;51.252;6.802;2022-08-01T15:33:45;31.75;;;28.55;;
2576;SDS011;1298;51.252;6.802;2022-08-01T15:36:31;31.20;;;28.25;;
2576;SDS011;1298;51.252;6.802;2022-08-01T15:39:16;27.80;;;25.50;;
2576;SDS011;1298;51.252;6.802;2022-08-01T15:42:04;27.70;;;25.40;;
2576;SDS011;1298;51.252;6.802;2022-08-01T15:44:52;28.20;;;25.80;;
2576;SDS011;1298;51.252;6.802;2022-08-01T15:47:38;30.70;;;28.05;;
2576;SDS011;1298;51.252;6.802;2022-08-01T15:50:23;29.92;;;27.25;;
2576;SDS011;1298;51.252;6.802;2022-08-01T15:53:09;28.98;;;26.38;;
2576;SDS011;1298;51.252;6.802;2022-08-01T15:55:55;30.88;;;28.17;;
2576;SDS011;1298;51.252;6.802;2022-08-01T15:58:42;29.65;;;27.05;;
2576;SDS011;1298;51.252;6.802;2022-08-01T16:01:27;29.58;;;26.98;;
2576;SDS011;1298;51.252;6.802;2022-08-01T16:04:14;30.05;;;27.45;;
2576;SDS011;1298;51.252;6.802;2022-08-01T16:06:59;28.33;;;25.95;;
2576;SDS011;1298;51.252;6.802;2022-08-01T16:09:45;32.83;;;29.63;;
2576;SDS011;1298;51.252;6.802;2022-08-01T16:12:31;30.70;;;27.70;;
2576;SDS011;1298;51.252;6.802;2022-08-01T16:15:18;33.30;;;29.80;;
2576;SDS011;1298;51.252;6.802;2022-08-01T16:18:04;33.42;;;30.23;;
2576;SDS011;1298;51.252;6.802;2022-08-01T16:20:50;28.83;;;26.35;;
2576;SDS011;1298;51.252;6.802;2022-08-01T16:23:36;26.25;;;24.25;;
2576;SDS011;1298;51.252;6.802;2022-08-01T16:26:22;28.63;;;26.10;;
2576;SDS011;1298;51.252;6.802;2022-08-01T16:29:07;30.85;;;28.02;;
2576;SDS011;1298;51.252;6.802;2022-08-01T16:31:54;32.92;;;29.65;;
2576;SDS011;1298;51.252;6.802;2022-08-01T16:34:39;31.85;;;28.75;;
2576;SDS011;1298;51.252;6.802;2022-08-01T16:37:25;33.45;;;30.35;;
2576;SDS011;1298;51.252;6.802;2022-08-01T16:40:11;28.88;;;26.45;;
2576;SDS011;1298;51.252;6.802;2022-08-01T16:42:56;25.75;;;23.85;;
2576;SDS011;1298;51.252;6.802;2022-08-01T16:45:42;26.48;;;24.48;;
2576;SDS011;1298;51.252;6.802;2022-08-01T16:48:32;25.13;;;23.25;;
2576;SDS011;1298;51.252;6.802;2022-08-01T16:51:17;25.20;;;23.40;;
2576;SDS011;1298;51.252;6.802;2022-08-01T16:54:03;25.08;;;23.27;;
2576;SDS011;1298;51.252;6.802;2022-08-01T16:56:49;25.20;;;23.40;;
2576;SDS011;1298;51.252;6.802;2022-08-01T16:59:35;24.70;;;23.00;;
2576;SDS011;1298;51.252;6.802;2022-08-01T17:02:21;23.90;;;22.30;;
2576;SDS011;1298;51.252;6.802;2022-08-01T17:05:08;21.20;;;19.90;;
2576;SDS011;1298;51.252;6.802;2022-08-01T17:07:53;19.65;;;18.55;;
2576;SDS011;1298;51.252;6.802;2022-08-01T17:10:39;33.08;;;29.67;;
2576;SDS011;1298;51.252;6.802;2022-08-01T17:13:24;31.08;;;27.98;;